Time;durP1;ratioP1;P1;durP2;ratioP2;P2;SDS_P1;SDS_P2;PMS_P1;PMS_P2;Temp;Humidity;BMP_temperature;BMP_pressure;BME280_temperature;BME280_humidity;BME280_pressure;Samples;Min_cycle;Max_cycle;Signal;HPM_P1;HPM_P2
2021/04/28 04:15:11;;;;;;;3.72;1.27;;;0.60;90.10;;;;;;5054153;28;20049;-67
2021/04/28 04:17:38;;;;;;;2.40;0.98;;;0.70;89.90;;;;;;5055220;28;20106;-67
2021/04/28 04:20:05;;;;;;;1.52;0.90;;;0.80;89.40;;;;;;5055083;28;20021;-67
2021/04/28 04:22:30;;;;;;;2.17;1.00;;;1.00;88.00;;;;;;5054970;28;20369;-67
2021/04/28 04:24:56;;;;;;;1.83;1.20;;;1.10;86.80;;;;;;5054704;28;20021;-67
2021/04/28 04:27:22;;;;;;;1.88;0.93;;;1.30;85.80;;;;;;5054618;28;20088;-67
2021/04/28 04:29:48;;;;;;;7.15;0.80;;;1.40;84.70;;;;;;5053778;28;20621;-68
2021/04/28 04:32:13;;;;;;;1.35;0.90;;;1.60;84.50;;;;;;5054584;28;20025;-72
2021/04/28 04:34:39;;;;;;;1.45;1.00;;;1.70;83.00;;;;;;5054620;28;20021;-67
2021/04/28 04:37:05;;;;;;;7.60;0.90;;;1.90;82.00;;;;;;5054456;28;20021;-67
2021/04/28 04:39:31;;;;;;;1.15;0.70;;;2.80;99.90;;;;;;5054888;28;20029;-68
2021/04/28 04:41:56;;;;;;;7.35;1.15;;;4.40;91.10;;;;;;5053252;28;20421;-66
2021/04/28 04:44:22;;;;;;;0.82;0.75;;;4.10;75.90;;;;;;5054134;28;20028;-68
2021/04/28 04:46:48;;;;;;;5.70;1.00;;;3.60;74.20;;;;;;5054063;28;20067;-66
2021/04/28 04:49:14;;;;;;;1.70;0.90;;;3.40;74.90;;;;;;5053896;28;20128;-67
2021/04/28 04:51:40;;;;;;;2.95;0.90;;;3.20;75.60;;;;;;5053773;28;20024;-68
2021/04/28 04:54:06;;;;;;;1.95;0.90;;;3.20;75.70;;;;;;5053866;28;20094;-66
2021/04/28 04:56:32;;;;;;;2.55;0.60;;;3.40;75.60;;;;;;5053640;28;20021;-68
2021/04/28 04:58:58;;;;;;;1.20;0.70;;;3.60;74.40;;;;;;5056766;28;20384;-66
2021/04/28 05:01:23;;;;;;;25.05;1.23;;;3.90;73.10;;;;;;5053529;28;20017;-67
2021/04/28 05:03:49;;;;;;;3.25;0.95;;;4.10;72.10;;;;;;5056464;28;20116;-67
2021/04/28 05:06:15;;;;;;;1.38;0.60;;;4.40;71.00;;;;;;5060612;28;20280;-67
2021/04/28 05:08:41;;;;;;;1.65;0.80;;;4.60;69.80;;;;;;5059830;28;20037;-67
2021/04/28 05:11:07;;;;;;;0.80;0.80;;;4.90;68.80;;;;;;5062225;28;20526;-67
2021/04/28 05:13:32;;;;;;;0.65;0.65;;;5.00;67.50;;;;;;5062514;28;20025;-67
2021/04/28 05:15:58;;;;;;;1.77;0.60;;;5.00;66.20;;;;;;5058968;28;20045;-67
2021/04/28 05:18:24;;;;;;;0.40;0.40;;;5.00;66.20;;;;;;5053779;28;20021;-67
2021/04/28 05:20:49;;;;;;;2.03;0.60;;;5.00;65.70;;;;;;5053755;28;20064;-68
2021/04/28 05:23:15;;;;;;;0.60;0.60;;;4.90;66.50;;;;;;5053710;28;20025;-68
2021/04/28 05:25:41;;;;;;;2.08;0.60;;;4.90;66.10;;;;;;5053609;28;20040;-68
2021/04/28 05:28:07;;;;;;;4.80;0.47;;;4.90;68.70;;;;;;5053510;28;20163;-68
2021/04/28 05:30:33;;;;;;;7.78;0.85;;;4.90;65.90;;;;;;5053355;28;20083;-68
2021/04/28 05:32:59;;;;;;;2.53;0.60;;;4.90;65.90;;;;;;5053946;28;20075;-67
2021/04/28 05:35:25;;;;;;;1.70;0.52;;;4.90;66.00;;;;;;5053464;28;20124;-67
2021/04/28 05:37:51;;;;;;;5.47;0.90;;;4.90;65.90;;;;;;5053527;28;20021;-67
2021/04/28 05:40:18;;;;;;;4.68;0.80;;;5.00;66.40;;;;;;5053291;28;20484;-67
2021/04/28 05:42:44;;;;;;;8.30;1.10;;;5.30;66.40;;;;;;5053761;28;20163;-68
2021/04/28 05:45:11;;;;;;;9.75;0.90;;;5.40;65.60;;;;;;5053417;28;20104;-68
2021/04/28 05:47:37;;;;;;;3.45;0.70;;;5.60;65.20;;;;;;5053157;28;20064;-68
2021/04/28 05:50:08;;;;;;;1.00;0.57;;;5.80;64.20;;;;;;5053510;28;20098;-68
2021/04/28 05:52:34;;;;;;;0.68;0.40;;;6.00;63.80;;;;;;5052811;28;20036;-68
2021/04/28 05:55:00;;;;;;;1.83;0.68;;;6.20;63.10;;;;;;5053004;28;20025;-68
2021/04/28 05:57:26;;;;;;;1.67;0.60;;;6.40;62.40;;;;;;5053007;28;20112;-68
2021/04/28 05:59:51;;;;;;;0.57;0.40;;;6.70;61.90;;;;;;5053076;28;20115;-68
2021/04/28 06:02:17;;;;;;;0.65;0.40;;;6.90;61.10;;;;;;5052947;28;20025;-68
2021/04/28 06:04:43;;;;;;;1.55;0.43;;;7.10;60.20;;;;;;5052866;28;20552;-68
2021/04/28 06:07:08;;;;;;;2.40;0.55;;;7.30;59.20;;;;;;5051548;28;20037;-68
2021/04/28 06:09:34;;;;;;;1.25;0.47;;;7.50;59.90;;;;;;5052260;28;20439;-68
2021/04/28 06:12:00;;;;;;;0.32;0.30;;;8.10;68.30;;;;;;5050257;28;20078;-67
2021/04/28 06:14:26;;;;;;;1.55;0.32;;;8.60;58.90;;;;;;5052882;28;20140;-67
2021/04/28 06:16:52;;;;;;;2.63;0.40;;;8.80;57.80;;;;;;5060560;28;20032;-67
2021/04/28 06:19:18;;;;;;;0.63;0.40;;;8.90;56.90;;;;;;5063432;28;20103;-67
2021/04/28 06:21:44;;;;;;;0.38;0.30;;;8.90;56.40;;;;;;5057578;28;20113;-66
2021/04/28 06:24:10;;;;;;;2.90;0.70;;;8.90;56.40;;;;;;5052620;28;20032;-69
2021/04/28 06:26:39;;;;;;;0.20;0.20;;;8.80;56.50;;;;;;5052345;28;20033;-65
2021/04/28 06:29:04;;;;;;;0.45;0.43;;;9.30;66.60;;;;;;5052674;28;20086;-67
2021/04/28 06:31:30;;;;;;;1.30;0.30;;;10.10;64.20;;;;;;5052326;28;20096;-72
2021/04/28 06:33:56;;;;;;;0.95;0.43;;;9.50;54.50;;;;;;5052363;28;20107;-70
2021/04/28 06:36:21;;;;;;;0.85;0.40;;;9.00;54.80;;;;;;5052416;28;20692;-68
2021/04/28 06:38:47;;;;;;;3.55;0.70;;;8.80;55.10;;;;;;5052194;28;20017;-68
2021/04/28 06:41:13;;;;;;;1.08;0.40;;;8.60;55.60;;;;;;5052039;28;20033;-68
2021/04/28 06:43:39;;;;;;;0.80;0.40;;;8.50;55.90;;;;;;5052302;28;20017;-66
2021/04/28 06:46:05;;;;;;;2.78;0.52;;;8.50;56.30;;;;;;5052332;28;20390;-66
2021/04/28 06:48:30;;;;;;;1.48;0.35;;;8.50;55.80;;;;;;5051997;28;20037;-67
2021/04/28 06:50:56;;;;;;;0.75;0.40;;;8.60;55.70;;;;;;5052040;28;20032;-67
2021/04/28 06:53:22;;;;;;;4.03;0.43;;;8.70;55.60;;;;;;5051895;28;20025;-66
2021/04/28 06:55:49;;;;;;;10.73;1.40;;;8.80;55.40;;;;;;5051997;28;20025;-66
2021/04/28 06:58:15;;;;;;;1.13;0.40;;;8.90;55.80;;;;;;5052126;28;20052;-66
2021/04/28 07:00:41;;;;;;;1.13;0.40;;;8.90;55.20;;;;;;5052251;28;20028;-66
2021/04/28 07:03:07;;;;;;;2.80;0.52;;;8.90;55.20;;;;;;5051907;28;20028;-66
2021/04/28 07:05:33;;;;;;;1.30;0.40;;;9.00;55.20;;;;;;5051301;28;20017;-67
2021/04/28 07:07:59;;;;;;;0.68;0.35;;;8.90;54.20;;;;;;5051874;28;20033;-65
2021/04/28 07:10:26;;;;;;;0.40;0.30;;;8.90;54.60;;;;;;5051751;28;20485;-68
2021/04/28 07:12:52;;;;;;;1.88;0.40;;;8.90;54.40;;;;;;5051983;28;20430;-68
2021/04/28 07:15:18;;;;;;;0.90;0.40;;;8.90;54.70;;;;;;5051595;28;20060;-68
2021/04/28 07:17:48;;;;;;;4.10;0.70;;;9.00;56.50;;;;;;5051741;28;20391;-68
2021/04/28 07:20:15;;;;;;;2.90;0.80;;;9.70;65.60;;;;;;5051668;28;20025;-67
2021/04/28 07:22:41;;;;;;;4.72;0.70;;;10.90;68.90;;;;;;5051818;28;20036;-67
2021/04/28 07:25:07;;;;;;;3.22;0.50;;;11.70;67.30;;;;;;5051738;28;20017;-67
2021/04/28 07:27:33;;;;;;;0.38;0.30;;;12.30;66.50;;;;;;5050036;28;20234;-68
2021/04/28 07:29:59;;;;;;;0.43;0.32;;;12.60;58.40;;;;;;5048716;28;20572;-68
2021/04/28 07:32:25;;;;;;;0.68;0.40;;;11.60;51.40;;;;;;5051295;28;20111;-68
2021/04/28 07:34:50;;;;;;;0.30;0.30;;;10.60;50.90;;;;;;5051073;28;20113;-67
2021/04/28 07:37:16;;;;;;;1.38;0.40;;;9.80;51.00;;;;;;5051150;28;20028;-71
2021/04/28 07:39:42;;;;;;;0.52;0.30;;;9.30;51.50;;;;;;5051678;28;20120;-71
2021/04/28 07:42:08;;;;;;;0.88;0.47;;;9.00;51.70;;;;;;5051476;28;20022;-70
2021/04/28 07:44:34;;;;;;;1.27;0.50;;;8.90;53.10;;;;;;5051965;28;20029;-69
2021/04/28 07:47:01;;;;;;;0.60;0.40;;;8.80;53.40;;;;;;5051454;28;20492;-69
2021/04/28 07:49:27;;;;;;;0.50;0.40;;;8.40;52.50;;;;;;5051313;28;20043;-69
2021/04/28 07:51:53;;;;;;;3.47;0.30;;;8.20;53.10;;;;;;5051322;28;20112;-69
2021/04/28 07:54:20;;;;;;;0.63;0.30;;;8.00;53.60;;;;;;5051372;28;20111;-70
2021/04/28 07:56:47;;;;;;;0.30;0.30;;;7.80;52.80;;;;;;5051207;28;20071;-67
2021/04/28 07:59:14;;;;;;;1.75;0.50;;;7.70;52.80;;;;;;5050811;28;20515;-70
2021/04/28 08:01:40;;;;;;;1.95;0.50;;;7.60;53.10;;;;;;5048551;28;20025;-68
2021/04/28 08:04:06;;;;;;;3.40;0.50;;;7.40;53.20;;;;;;5051282;28;20060;-70
2021/04/28 08:06:32;;;;;;;0.43;0.38;;;7.40;53.60;;;;;;5050610;28;20045;-73
2021/04/28 08:08:58;;;;;;;1.17;0.50;;;7.30;53.30;;;;;;5050448;28;20443;-70
2021/04/28 08:11:25;;;;;;;0.82;0.50;;;7.10;53.40;;;;;;5050920;28;20021;-70
2021/04/28 08:13:51;;;;;;;3.60;0.60;;;7.10;54.60;;;;;;5050801;28;20044;-69
2021/04/28 08:16:19;;;;;;;1.33;0.73;;;7.30;59.20;;;;;;5053200;28;20044;-70
2021/04/28 08:18:44;;;;;;;1.73;0.60;;;7.50;56.80;;;;;;5055197;28;20036;-71
2021/04/28 08:21:10;;;;;;;2.88;0.40;;;7.50;54.10;;;;;;5054916;28;20388;-70
2021/04/28 08:23:41;;;;;;;0.43;0.38;;;7.40;53.00;;;;;;5054794;28;20489;-70
2021/04/28 08:26:07;;;;;;;1.55;0.40;;;7.20;53.40;;;;;;5054865;28;20028;-70
2021/04/28 08:28:39;;;;;;;2.25;0.50;;;7.20;54.30;;;;;;5054573;28;20033;-70
2021/04/28 08:31:06;;;;;;;3.08;0.50;;;7.30;53.60;;;;;;5054758;28;20028;-70
2021/04/28 08:33:32;;;;;;;1.98;0.50;;;7.10;52.80;;;;;;5054602;28;20602;-70
2021/04/28 08:35:58;;;;;;;0.45;0.43;;;7.10;52.90;;;;;;5054522;28;20032;-70
2021/04/28 08:38:24;;;;;;;0.63;0.40;;;7.00;52.70;;;;;;5054499;28;20025;-70
2021/04/28 08:40:49;;;;;;;0.50;0.40;;;6.90;53.00;;;;;;5054519;28;20025;-71
2021/04/28 08:43:15;;;;;;;0.70;0.50;;;6.90;52.80;;;;;;5054399;28;20033;-70
2021/04/28 08:45:41;;;;;;;1.60;0.52;;;6.80;52.30;;;;;;5054619;28;20043;-71
2021/04/28 08:48:07;;;;;;;14.63;1.10;;;6.70;52.90;;;;;;5054621;28;20032;-70
2021/04/28 08:50:33;;;;;;;2.17;0.60;;;6.70;53.10;;;;;;5054259;28;20025;-71
2021/04/28 08:53:00;;;;;;;0.50;0.50;;;6.70;53.10;;;;;;5054277;28;20061;-70
2021/04/28 08:55:25;;;;;;;1.30;0.47;;;6.70;52.10;;;;;;5054428;28;20156;-70
2021/04/28 08:57:51;;;;;;;0.40;0.40;;;6.70;50.80;;;;;;5054464;28;20488;-70
2021/04/28 09:00:18;;;;;;;0.38;0.38;;;6.70;50.60;;;;;;5054062;28;20048;-71
2021/04/28 09:03:01;;;;;;;0.43;0.40;;;6.80;50.50;;;;;;5054118;28;20551;-70
2021/04/28 09:05:32;;;;;;;3.25;0.50;;;6.90;50.50;;;;;;5052732;28;20075;-71
2021/04/28 09:07:59;;;;;;;1.02;0.70;;;7.00;51.00;;;;;;5054139;28;20119;-70
2021/04/28 09:10:28;;;;;;;2.25;0.60;;;6.90;49.20;;;;;;5053887;28;20029;-70
2021/04/28 09:12:59;;;;;;;0.68;0.60;;;6.70;50.20;;;;;;5054003;28;20025;-70
2021/04/28 09:15:41;;;;;;;4.47;0.70;;;6.60;49.30;;;;;;5053722;28;20049;-70
2021/04/28 09:18:09;;;;;;;9.70;1.17;;;6.70;50.40;;;;;;5053936;28;20025;-70
2021/04/28 09:20:38;;;;;;;2.97;0.90;;;6.60;51.00;;;;;;5053088;28;20029;-70
2021/04/28 09:23:16;;;;;;;4.00;0.55;;;6.70;50.60;;;;;;5053654;28;20431;-70
2021/04/28 09:25:53;;;;;;;0.82;0.40;;;7.00;51.20;;;;;;5050959;28;20077;-72
2021/04/28 09:28:29;;;;;;;4.53;0.47;;;7.10;49.40;;;;;;5052741;28;20037;-72
2021/04/28 09:31:07;;;;;;;2.28;0.50;;;7.10;48.90;;;;;;5053515;28;20021;-73
2021/04/28 09:34:02;;;;;;;2.70;0.60;;;7.20;50.10;;;;;;5053742;28;20033;-72
2021/04/28 09:36:32;;;;;;;0.55;0.50;;;7.20;49.40;;;;;;5048371;28;20435;-71
2021/04/28 09:39:02;;;;;;;;;;;7.20;48.80;;;;;;5054261;28;20029;-73
2021/04/28 09:41:51;;;;;;;0.60;0.60;;;7.20;50.80;;;;;;5053358;28;19958;-75
2021/04/28 09:44:20;;;;;;;0.50;0.50;;;7.40;49.50;;;;;;5053718;28;20430;-73
2021/04/28 09:47:03;;;;;;;1.30;0.40;;;7.30;48.10;;;;;;5053157;28;20024;-73
2021/04/28 09:49:56;;;;;;;0.88;0.57;;;7.20;48.60;;;;;;5053467;28;20025;-73
2021/04/28 09:52:33;;;;;;;2.55;0.47;;;7.00;47.70;;;;;;5053038;28;20017;-73
2021/04/28 09:55:06;;;;;;;3.20;0.70;;;6.90;48.20;;;;;;5053244;28;20029;-73
2021/04/28 09:57:46;;;;;;;2.05;0.75;;;6.90;49.50;;;;;;5053027;28;20598;-70
2021/04/28 10:00:25;;;;;;;0.57;0.53;;;7.00;49.70;;;;;;5051938;28;20424;-71
2021/04/28 10:02:55;;;;;;;8.63;0.80;;;7.00;48.90;;;;;;5053336;28;20271;-73
2021/04/28 10:05:24;;;;;;;3.10;0.63;;;7.00;49.10;;;;;;5053184;28;20060;-72
2021/04/28 10:07:51;;;;;;;7.20;0.73;;;7.00;50.90;;;;;;5052407;28;20045;-72
2021/04/28 10:10:18;;;;;;;4.05;0.88;;;7.00;50.70;;;;;;5053138;28;20025;-73
2021/04/28 10:12:44;;;;;;;2.33;0.63;;;7.00;52.30;;;;;;5052778;28;20068;-73
2021/04/28 10:15:11;;;;;;;0.40;0.40;;;7.50;55.30;;;;;;5052668;28;20037;-73
2021/04/28 10:17:38;;;;;;;2.38;0.80;;;7.50;50.90;;;;;;5052665;28;20025;-73
2021/04/28 10:20:05;;;;;;;2.85;0.70;;;7.20;51.00;;;;;;5052612;28;20507;-72
2021/04/28 10:22:32;;;;;;;0.70;0.60;;;7.10;50.60;;;;;;5052479;28;20425;-72
2021/04/28 10:25:03;;;;;;;3.63;0.60;;;7.00;50.60;;;;;;5052505;28;20032;-72
2021/04/28 10:27:29;;;;;;;2.38;1.83;;;6.90;50.30;;;;;;5052014;28;20516;-72
2021/04/28 10:29:55;;;;;;;1.85;0.60;;;6.80;50.60;;;;;;5052320;28;20459;-72
2021/04/28 10:32:23;;;;;;;9.85;1.27;;;6.80;50.80;;;;;;5051034;28;20078;-72
2021/04/28 10:35:00;;;;;;;1.45;0.57;;;6.90;52.10;;;;;;5052149;28;20029;-71
2021/04/28 10:37:29;;;;;;;2.45;0.50;;;6.90;51.00;;;;;;5052306;28;20496;-72
2021/04/28 10:39:55;;;;;;;1.67;0.60;;;7.00;51.60;;;;;;5047744;28;20040;-71
2021/04/28 10:42:31;;;;;;;1.35;0.55;;;7.50;61.90;;;;;;5050106;28;20029;-73
2021/04/28 10:44:57;;;;;;;2.75;0.50;;;7.70;51.20;;;;;;5050409;28;20124;-74
2021/04/28 10:47:33;;;;;;;1.92;0.60;;;7.50;50.30;;;;;;5052191;28;20052;-73
2021/04/28 10:50:27;;;;;;;3.50;0.90;;;7.50;51.10;;;;;;5052421;28;20436;-72
2021/04/28 10:53:02;;;;;;;18.27;1.83;;;7.50;52.10;;;;;;5050449;28;20033;-74
2021/04/28 10:55:50;;;;;;;1.27;0.60;;;7.60;52.80;;;;;;5051724;28;20108;-73
2021/04/28 10:58:34;;;;;;;2.25;0.52;;;7.60;49.60;;;;;;5052379;28;20082;-73
2021/04/28 11:01:04;;;;;;;0.70;0.60;;;7.50;49.60;;;;;;5050802;28;20033;-73
2021/04/28 11:03:33;;;;;;;1.05;0.50;;;7.40;49.00;;;;;;5051904;28;20028;-73
2021/04/28 11:06:20;;;;;;;0.40;0.40;;;7.30;48.70;;;;;;5052020;28;20541;-73
2021/04/28 11:08:49;;;;;;;1.40;0.70;;;7.30;49.20;;;;;;5051786;28;20072;-73
2021/04/28 11:11:33;;;;;;;3.20;1.70;;;7.30;50.10;;;;;;5051884;28;20027;-73
2021/04/28 11:14:11;;;;;;;0.70;0.52;;;7.30;50.50;;;;;;5052214;28;20068;-73
2021/04/28 11:16:46;;;;;;;0.40;0.40;;;7.20;51.00;;;;;;5051641;28;20106;-73
2021/04/28 11:19:20;;;;;;;1.88;0.70;;;7.10;51.70;;;;;;5051965;28;20032;-73
2021/04/28 11:22:06;;;;;;;5.05;1.00;;;7.20;51.50;;;;;;5051707;28;20040;-72
2021/04/28 11:25:07;;;;;;;1.40;0.70;;;7.30;51.90;;;;;;5051598;28;20052;-71
2021/04/28 11:27:55;;;;;;;0.65;0.65;;;7.40;51.10;;;;;;5051524;28;20025;-71
2021/04/28 11:30:26;;;;;;;3.53;0.50;;;7.50;52.10;;;;;;5051790;28;20029;-73
2021/04/28 11:33:07;;;;;;;0.65;0.47;;;7.60;51.80;;;;;;5051164;28;20033;-71
2021/04/28 11:35:35;;;;;;;1.55;0.60;;;7.60;52.10;;;;;;5051488;28;20036;-71
2021/04/28 11:38:07;;;;;;;0.68;0.57;;;7.70;51.00;;;;;;5051552;28;20032;-72
2021/04/28 11:40:48;;;;;;;12.65;1.00;;;7.80;51.70;;;;;;5051517;28;20053;-72
2021/04/28 11:43:13;;;;;;;2.22;0.73;;;7.70;51.00;;;;;;5051663;28;20036;-72
2021/04/28 11:45:39;;;;;;;2.67;0.40;;;7.50;51.50;;;;;;5051418;28;20029;-72
2021/04/28 11:48:24;;;;;;;1.75;0.70;;;7.40;51.20;;;;;;5051792;28;20076;-72
2021/04/28 11:50:56;;;;;;;4.53;1.05;;;7.30;51.50;;;;;;5053208;28;20032;-72
2021/04/28 11:53:23;;;;;;;1.38;0.70;;;7.10;52.90;;;;;;5055965;28;20025;-72
2021/04/28 11:55:51;;;;;;;3.28;0.82;;;6.70;54.50;;;;;;5055547;28;20036;-72
2021/04/28 11:58:22;;;;;;;1.00;0.52;;;6.50;56.10;;;;;;5055490;28;20032;-72
2021/04/28 12:00:59;;;;;;;2.33;0.75;;;6.30;56.60;;;;;;5055358;28;20021;-72
2021/04/28 12:03:25;;;;;;;1.02;0.50;;;6.30;57.40;;;;;;5055177;28;20461;-72
2021/04/28 12:05:51;;;;;;;1.45;0.50;;;6.40;57.80;;;;;;5055374;28;20176;-71
2021/04/28 12:08:17;;;;;;;2.65;0.68;;;6.40;58.10;;;;;;5054993;28;20029;-72
2021/04/28 12:10:54;;;;;;;2.47;0.60;;;6.40;58.10;;;;;;5054981;28;20025;-72
2021/04/28 12:13:21;;;;;;;3.60;0.80;;;6.40;58.00;;;;;;5055234;28;20493;-72
2021/04/28 12:15:51;;;;;;;3.67;0.73;;;6.40;57.30;;;;;;5054672;28;20055;-73
2021/04/28 12:18:30;;;;;;;32.03;2.28;;;6.60;62.40;;;;;;5055245;28;20064;-71
2021/04/28 12:20:58;;;;;;;9.93;0.73;;;7.40;64.10;;;;;;5054841;28;20504;-71
2021/04/28 12:23:24;;;;;;;4.00;0.82;;;7.30;55.30;;;;;;5055084;28;20029;-71
2021/04/28 12:25:50;;;;;;;1.50;0.68;;;7.10;55.60;;;;;;5054855;28;20067;-71
2021/04/28 12:28:16;;;;;;;1.08;0.60;;;7.00;55.40;;;;;;5054753;28;20120;-71
2021/04/28 12:30:41;;;;;;;1.83;0.85;;;6.90;55.30;;;;;;5055092;28;20028;-71
2021/04/28 12:33:07;;;;;;;2.92;0.70;;;6.90;55.60;;;;;;5054688;28;20025;-71
2021/04/28 12:35:36;;;;;;;3.25;0.80;;;6.90;55.30;;;;;;5054576;28;20495;-71
2021/04/28 12:38:13;;;;;;;2.47;0.63;;;6.90;55.10;;;;;;5054567;28;20068;-71
2021/04/28 12:40:40;;;;;;;8.90;1.70;;;6.90;55.10;;;;;;5054717;28;20055;-71
2021/04/28 12:43:09;;;;;;;4.70;0.88;;;6.90;55.00;;;;;;5054023;28;20047;-71
2021/04/28 12:45:36;;;;;;;5.50;0.82;;;7.00;55.40;;;;;;5054360;28;20393;-70
2021/04/28 12:48:10;;;;;;;3.45;0.50;;;7.00;54.80;;;;;;5053188;28;20539;-70
2021/04/28 12:50:36;;;;;;;3.15;0.70;;;7.00;54.70;;;;;;5054422;28;20036;-69
2021/04/28 12:53:20;;;;;;;3.50;0.70;;;6.90;54.80;;;;;;5054363;28;20648;-70
2021/04/28 12:55:47;;;;;;;9.00;1.08;;;7.00;54.20;;;;;;5053866;28;20067;-70
2021/04/28 12:58:18;;;;;;;10.00;1.10;;;7.10;54.90;;;;;;5054292;28;20380;-71
2021/04/28 13:00:49;;;;;;;8.90;1.27;;;7.20;53.00;;;;;;5034383;28;20029;-70
2021/04/28 13:03:22;;;;;;;2.92;0.60;;;7.20;52.10;;;;;;5033463;28;20107;-71
2021/04/28 13:05:53;;;;;;;6.18;0.70;;;7.20;52.20;;;;;;5034202;28;20083;-72
2021/04/28 13:08:40;;;;;;;3.38;0.70;;;7.20;51.70;;;;;;5034026;28;20481;-71
2021/04/28 13:11:16;;;;;;;0.65;0.45;;;7.00;52.00;;;;;;5034187;28;20076;-71
2021/04/28 13:13:54;;;;;;;1.92;0.40;;;6.80;51.50;;;;;;5034104;28;20021;-70
2021/04/28 13:16:58;;;;;;;3.25;0.40;;;6.60;51.50;;;;;;5033878;28;20056;-71
2021/04/28 13:19:28;;;;;;;0.52;0.50;;;6.50;52.20;;;;;;5040188;28;20033;-70
2021/04/28 13:22:04;;;;;;;2.20;0.60;;;6.40;52.00;;;;;;5053705;28;20037;-71
2021/04/28 13:24:34;;;;;;;1.83;0.60;;;6.30;52.20;;;;;;5053926;28;20029;-70
2021/04/28 13:27:07;;;;;;;;;;;6.40;53.40;;;;;;5054386;28;20025;-70
2021/04/28 13:30:01;;;;;;;2.70;0.65;;;6.40;53.30;;;;;;5053664;28;20404;-70
2021/04/28 13:32:42;;;;;;;7.60;0.68;;;6.50;53.50;;;;;;5053775;28;20029;-71
2021/04/28 13:35:12;;;;;;;5.47;0.70;;;6.60;53.80;;;;;;5053628;28;20043;-71
2021/04/28 13:37:38;;;;;;;5.63;0.80;;;6.40;53.50;;;;;;5053265;28;20104;-70
2021/04/28 13:40:25;;;;;;;5.05;0.70;;;6.30;54.20;;;;;;5053589;28;20036;-70
2021/04/28 13:42:52;;;;;;;14.88;1.45;;;6.20;55.10;;;;;;5053308;28;20037;-70
2021/04/28 13:45:18;;;;;;;6.80;0.82;;;6.20;55.80;;;;;;5053399;28;20538;-71
2021/04/28 13:47:44;;;;;;;4.68;0.73;;;6.20;55.40;;;;;;5055593;28;20040;-71
2021/04/28 13:50:10;;;;;;;4.53;0.80;;;6.10;56.00;;;;;;5062553;28;20024;-71
2021/04/28 13:52:37;;;;;;;6.88;0.70;;;6.10;57.60;;;;;;5062023;28;20134;-71
2021/04/28 13:55:05;;;;;;;5.97;1.02;;;6.20;57.30;;;;;;5063973;28;20052;-70
2021/04/28 13:57:30;;;;;;;2.15;0.70;;;6.10;57.60;;;;;;5062079;28;20028;-71
2021/04/28 13:59:56;;;;;;;4.13;0.77;;;6.10;57.80;;;;;;5062532;28;20103;-74
2021/04/28 14:02:22;;;;;;;2.75;0.90;;;6.20;57.40;;;;;;5063814;28;20055;-70
2021/04/28 14:04:48;;;;;;;5.05;0.65;;;6.20;57.20;;;;;;5058581;28;20020;-70
2021/04/28 14:07:14;;;;;;;2.92;0.70;;;6.20;58.00;;;;;;5062515;28;20029;-70
2021/04/28 14:09:41;;;;;;;4.45;0.80;;;6.20;57.80;;;;;;5061134;28;20036;-70
2021/04/28 14:12:07;;;;;;;1.40;0.60;;;6.20;57.60;;;;;;5062945;28;20480;-70
2021/04/28 14:14:33;;;;;;;5.70;0.70;;;6.20;57.10;;;;;;5061565;28;20072;-70
2021/04/28 14:16:58;;;;;;;3.42;0.80;;;6.20;56.80;;;;;;5066482;28;20480;-70
2021/04/28 14:19:25;;;;;;;4.30;1.10;;;6.30;57.20;;;;;;5070054;28;20043;-71
2021/04/28 14:21:52;;;;;;;1.67;0.63;;;6.20;57.20;;;;;;5071037;28;20033;-70
2021/04/28 14:24:18;;;;;;;11.70;1.00;;;6.30;57.40;;;;;;5066440;28;20077;-70
2021/04/28 14:26:43;;;;;;;7.28;1.10;;;6.30;56.90;;;;;;5060745;28;20099;-71
2021/04/28 14:29:09;;;;;;;3.70;0.63;;;6.30;56.70;;;;;;5067011;28;20415;-70
2021/04/28 14:31:35;;;;;;;23.05;0.85;;;6.30;56.80;;;;;;5064659;28;20565;-70
2021/04/28 14:34:00;;;;;;;4.82;0.70;;;6.30;56.30;;;;;;5057757;28;20512;-70
2021/04/28 14:36:26;;;;;;;6.30;1.23;;;6.30;56.20;;;;;;5066932;28;20020;-70
2021/04/28 14:38:52;;;;;;;14.00;1.00;;;6.40;56.00;;;;;;5060571;28;20024;-70
2021/04/28 14:41:18;;;;;;;19.98;0.93;;;6.30;55.90;;;;;;5061457;28;20020;-70
2021/04/28 14:43:43;;;;;;;5.20;0.73;;;6.40;55.50;;;;;;5062981;28;20025;-70
2021/04/28 14:46:09;;;;;;;1.80;0.93;;;6.60;61.00;;;;;;5057209;28;20068;-70
2021/04/28 14:48:35;;;;;;;7.68;1.05;;;7.00;59.80;;;;;;5056777;28;20471;-70
2021/04/28 14:51:03;;;;;;;3.42;0.68;;;7.00;55.80;;;;;;5061743;28;20081;-70
2021/04/28 14:53:30;;;;;;;0.65;0.50;;;7.00;55.60;;;;;;5058735;28;20028;-70
2021/04/28 14:55:56;;;;;;;1.20;0.52;;;7.00;56.80;;;;;;5057427;28;20017;-69
2021/04/28 14:58:21;;;;;;;9.25;1.10;;;7.10;61.30;;;;;;5062939;28;20047;-75
2021/04/28 15:00:48;;;;;;;4.68;0.63;;;8.00;61.60;;;;;;5059849;28;20396;-72
2021/04/28 15:03:14;;;;;;;2.67;0.60;;;7.90;55.40;;;;;;5054649;28;20461;-73
2021/04/28 15:05:39;;;;;;;1.45;0.65;;;7.70;54.30;;;;;;5054522;28;20029;-72
2021/04/28 15:08:05;;;;;;;3.17;0.57;;;7.50;54.10;;;;;;5056918;28;20033;-72
2021/04/28 15:10:31;;;;;;;5.35;0.77;;;7.30;54.20;;;;;;5061339;28;20024;-73
2021/04/28 15:12:57;;;;;;;1.52;0.65;;;7.20;54.90;;;;;;5063636;28;20028;-73
2021/04/28 15:15:22;;;;;;;6.88;0.70;;;7.20;55.30;;;;;;5065565;28;20037;-72
2021/04/28 15:17:50;;;;;;;3.60;0.73;;;7.10;56.10;;;;;;5059210;28;20024;-72
2021/04/28 15:20:16;;;;;;;4.90;0.88;;;7.20;58.90;;;;;;5059714;28;20257;-72
2021/04/28 15:22:42;;;;;;;4.65;0.90;;;7.40;56.10;;;;;;5062137;28;20021;-72
2021/04/28 15:25:09;;;;;;;1.00;0.60;;;7.40;55.20;;;;;;5058905;28;20052;-72
2021/04/28 15:27:37;;;;;;;10.10;0.70;;;7.30;54.20;;;;;;5061152;28;20036;-72
2021/04/28 15:30:07;;;;;;;3.20;0.80;;;7.20;54.60;;;;;;5060168;28;20017;-72
2021/04/28 15:32:35;;;;;;;1.90;0.60;;;7.10;54.80;;;;;;5061575;28;20039;-73
2021/04/28 15:35:02;;;;;;;4.63;0.55;;;7.10;54.40;;;;;;5062538;28;20101;-72
2021/04/28 15:37:28;;;;;;;9.70;0.90;;;7.00;54.00;;;;;;5059850;28;20078;-73
2021/04/28 15:39:54;;;;;;;1.25;0.55;;;7.00;54.40;;;;;;5061309;28;20024;-72
2021/04/28 15:42:20;;;;;;;6.15;0.88;;;6.80;55.90;;;;;;5060239;28;20021;-72
2021/04/28 15:44:46;;;;;;;11.68;1.33;;;6.70;56.30;;;;;;5062015;28;20060;-72
2021/04/28 15:47:11;;;;;;;15.35;1.55;;;6.70;56.80;;;;;;5060592;28;20013;-72
2021/04/28 15:49:37;;;;;;;21.10;1.48;;;6.70;57.10;;;;;;5057445;28;20447;-72
2021/04/28 15:52:03;;;;;;;8.15;0.73;;;6.80;59.10;;;;;;5067960;28;20025;-71
2021/04/28 15:54:29;;;;;;;2.88;0.50;;;6.80;58.20;;;;;;5054064;28;20094;-71
2021/04/28 15:56:55;;;;;;;0.90;0.60;;;6.80;58.00;;;;;;5056739;28;20025;-71
2021/04/28 15:59:21;;;;;;;5.38;0.70;;;6.70;58.30;;;;;;5055698;28;20020;-72
2021/04/28 16:01:47;;;;;;;9.68;1.58;;;6.70;58.40;;;;;;5059943;28;20536;-70
2021/04/28 16:04:13;;;;;;;4.15;0.90;;;6.70;59.00;;;;;;5062885;28;20033;-71
2021/04/28 16:06:38;;;;;;;5.65;0.95;;;6.60;58.70;;;;;;5058846;28;20017;-72
2021/04/28 16:09:04;;;;;;;18.23;1.00;;;6.70;58.80;;;;;;5053133;28;20072;-73
2021/04/28 16:11:30;;;;;;;4.03;0.65;;;6.60;59.20;;;;;;5051488;28;20120;-72
2021/04/28 16:13:56;;;;;;;1.00;0.70;;;7.20;72.20;;;;;;5050733;28;20037;-72
2021/04/28 16:16:23;;;;;;;12.07;0.80;;;7.50;60.70;;;;;;5051257;28;20041;-73
2021/04/28 16:18:49;;;;;;;3.30;0.70;;;7.30;58.90;;;;;;5051148;28;20021;-73
2021/04/28 16:21:15;;;;;;;2.25;0.60;;;7.10;58.80;;;;;;5051393;28;20037;-72
2021/04/28 16:23:41;;;;;;;3.90;0.60;;;7.00;58.70;;;;;;5051085;28;20139;-72
2021/04/28 16:26:08;;;;;;;4.95;0.82;;;6.90;58.60;;;;;;5051262;28;20035;-72
2021/04/28 16:28:34;;;;;;;0.70;0.60;;;6.80;58.70;;;;;;5051126;28;20025;-72
2021/04/28 16:30:59;;;;;;;4.00;0.88;;;6.70;58.70;;;;;;5051423;28;20052;-72
2021/04/28 16:33:28;;;;;;;5.35;0.60;;;6.70;59.10;;;;;;5051429;28;20461;-72
2021/04/28 16:35:53;;;;;;;8.23;0.43;;;6.70;58.90;;;;;;5051121;28;20489;-72
2021/04/28 16:38:21;;;;;;;4.07;0.70;;;6.60;59.00;;;;;;5054643;28;20114;-73
2021/04/28 16:40:47;;;;;;;1.52;0.68;;;6.60;59.30;;;;;;5054702;28;20091;-73
2021/04/28 16:43:13;;;;;;;2.10;0.80;;;6.60;59.10;;;;;;5054835;28;20029;-73
2021/04/28 16:45:38;;;;;;;5.75;0.93;;;6.70;62.10;;;;;;5054437;28;20025;-73
2021/04/28 16:48:04;;;;;;;5.85;1.25;;;6.70;59.30;;;;;;5054335;28;20079;-72
2021/04/28 16:50:30;;;;;;;1.38;0.50;;;6.60;59.20;;;;;;5054569;28;20021;-72
2021/04/28 16:52:56;;;;;;;0.85;0.60;;;6.50;59.40;;;;;;5054069;28;20428;-72
2021/04/28 16:55:21;;;;;;;5.22;0.82;;;6.50;59.50;;;;;;5054421;28;20491;-72
2021/04/28 16:57:47;;;;;;;4.55;0.50;;;6.50;59.70;;;;;;5053823;28;20029;-70
2021/04/28 17:00:14;;;;;;;8.43;0.65;;;6.40;59.90;;;;;;5054176;28;20017;-69
2021/04/28 17:02:39;;;;;;;2.80;0.80;;;6.40;60.20;;;;;;5054115;28;20029;-70
2021/04/28 17:05:06;;;;;;;2.97;0.60;;;6.30;60.70;;;;;;5054538;28;20120;-70
2021/04/28 17:07:31;;;;;;;1.90;0.70;;;6.30;61.40;;;;;;5053908;28;20036;-70
2021/04/28 17:09:57;;;;;;;1.75;0.70;;;6.30;61.90;;;;;;5053933;28;20021;-70
2021/04/28 17:12:23;;;;;;;5.28;0.70;;;6.20;62.60;;;;;;5054021;28;20050;-70
2021/04/28 17:14:49;;;;;;;2.35;0.60;;;6.20;62.90;;;;;;5053697;28;20051;-70
2021/04/28 17:17:14;;;;;;;7.03;1.13;;;6.20;63.50;;;;;;5054160;28;20021;-70
2021/04/28 17:19:42;;;;;;;6.68;1.00;;;6.10;64.00;;;;;;5054081;28;20033;-69